createdAt,value
2018-01-24T00:02:09.054Z,11.05
2018-01-24T00:07:59.563Z,8.45
2018-01-24T00:10:49.242Z,13.55
2018-01-24T00:13:17.629Z,9.20
2018-01-24T00:15:46.282Z,10.00
2018-01-24T00:18:14.514Z,7.60
2018-01-24T00:20:42.981Z,8.02
2018-01-24T00:23:11.210Z,9.07
2018-01-24T00:25:39.067Z,8.02
2018-01-24T00:28:07.638Z,9.93
2018-01-24T00:30:35.891Z,4.80
2018-01-24T00:33:03.751Z,9.50
2018-01-24T00:35:31.251Z,8.60
2018-01-24T00:37:59.515Z,11.80
2018-01-24T00:40:27.771Z,6.43
2018-01-24T00:42:56.371Z,6.68
2018-01-24T00:45:24.635Z,5.70
2018-01-24T00:47:52.153Z,6.75
2018-01-24T00:50:19.962Z,8.93
2018-01-24T00:52:47.819Z,8.25
2018-01-24T00:55:16.823Z,8.32
2018-01-24T00:57:44.432Z,7.00
2018-01-24T01:00:11.994Z,10.32
2018-01-24T01:02:39.554Z,8.88
2018-01-24T01:05:07.782Z,7.25
2018-01-24T01:07:36.020Z,7.82
2018-01-24T01:10:03.543Z,6.80
2018-01-24T01:12:31.340Z,5.70
2018-01-24T01:15:00.367Z,8.52
2018-01-24T01:17:28.240Z,5.68
2018-01-24T01:19:58.996Z,5.10
2018-01-24T01:22:26.476Z,7.47
2018-01-24T01:24:53.939Z,7.60
2018-01-24T01:27:21.801Z,5.07
2018-01-24T01:29:49.666Z,5.80
2018-01-24T01:32:17.939Z,7.03
2018-01-24T01:34:46.574Z,7.65
2018-01-24T01:37:14.871Z,13.38
2018-01-24T01:39:43.125Z,6.93
2018-01-24T01:42:11.713Z,6.68
2018-01-24T01:44:39.257Z,8.15
2018-01-24T01:47:06.745Z,5.40
2018-01-24T01:49:35.252Z,7.22
2018-01-24T01:52:03.559Z,4.65
2018-01-24T01:54:31.500Z,7.45
2018-01-24T01:57:00.441Z,5.37
2018-01-24T01:59:27.930Z,9.73
2018-01-24T02:01:55.431Z,10.07
2018-01-24T02:04:23.626Z,8.25
2018-01-24T02:06:51.496Z,8.98
2018-01-24T02:09:19.389Z,7.97
2018-01-24T02:11:47.978Z,10.48
2018-01-24T02:14:16.211Z,8.65
2018-01-24T02:16:44.099Z,6.65
2018-01-24T02:19:12.271Z,6.62
2018-01-24T02:21:40.147Z,6.05
2018-01-24T02:24:08.383Z,7.68
2018-01-24T02:26:36.583Z,8.40
2018-01-24T02:29:04.836Z,6.28
2018-01-24T02:31:33.095Z,6.15
2018-01-24T02:34:01.264Z,8.52
2018-01-24T02:36:29.920Z,7.07
2018-01-24T02:39:09.787Z,8.52
2018-01-24T02:41:37.306Z,7.28
2018-01-24T02:44:05.175Z,10.25
2018-01-24T02:46:33.430Z,11.07
2018-01-24T02:49:01.356Z,12.63
2018-01-24T02:51:29.236Z,9.77
2018-01-24T02:53:57.060Z,11.43
2018-01-24T02:56:25.302Z,13.45
2018-01-24T02:58:52.803Z,12.27
2018-01-24T03:01:21.089Z,15.43
2018-01-24T03:03:48.607Z,16.73
2018-01-24T03:06:17.011Z,15.10
2018-01-24T03:08:44.509Z,22.17
2018-01-24T03:11:12.421Z,19.92
2018-01-24T03:13:40.301Z,17.05
2018-01-24T03:16:08.991Z,17.10
2018-01-24T03:18:36.471Z,17.12
2018-01-24T03:21:04.025Z,17.33
2018-01-24T03:23:31.861Z,16.45
2018-01-24T03:26:00.115Z,17.95
2018-01-24T03:28:27.991Z,17.23
2018-01-24T03:30:56.570Z,17.45
2018-01-24T03:33:25.020Z,16.17
2018-01-24T03:35:53.309Z,17.17
2018-01-24T03:38:21.568Z,16.77
2018-01-24T03:40:49.443Z,18.98
2018-01-24T03:43:17.319Z,19.67
2018-01-24T03:45:46.643Z,18.67
2018-01-24T03:48:14.887Z,18.70
2018-01-24T03:50:42.826Z,17.85
2018-01-24T03:53:10.677Z,20.27
2018-01-24T03:55:38.491Z,18.30
2018-01-24T03:58:06.423Z,18.12
2018-01-24T04:00:34.198Z,17.15
2018-01-24T04:03:01.751Z,15.82
2018-01-24T04:05:30.442Z,15.48
2018-01-24T04:07:57.996Z,15.82
2018-01-24T04:10:26.607Z,14.80
2018-01-24T04:12:54.468Z,17.12
2018-01-24T04:15:22.384Z,14.45
2018-01-24T04:17:50.284Z,15.50
2018-01-24T04:20:17.760Z,16.62
2018-01-24T04:22:45.661Z,14.02
2018-01-24T04:25:14.005Z,14.57
2018-01-24T04:27:42.266Z,15.00
2018-01-24T04:30:10.482Z,10.52
2018-01-24T04:32:38.356Z,13.05
2018-01-24T04:35:06.616Z,13.15
2018-01-24T04:37:35.179Z,12.85
2018-01-24T04:40:03.460Z,14.48
2018-01-24T04:42:31.328Z,13.50
2018-01-24T04:44:59.248Z,13.90
2018-01-24T04:47:26.726Z,14.82
2018-01-24T04:49:54.610Z,13.30
2018-01-24T04:52:23.121Z,11.40
2018-01-24T04:54:50.990Z,14.85
2018-01-24T04:57:18.474Z,15.60
2018-01-24T04:59:46.238Z,13.93
2018-01-24T05:02:14.115Z,14.65
2018-01-24T05:04:41.995Z,11.32
2018-01-24T05:07:09.880Z,14.38
2018-01-24T05:09:37.758Z,16.62
2018-01-24T05:12:05.639Z,13.20
2018-01-24T05:14:33.457Z,12.90
2018-01-24T05:17:00.938Z,15.75
2018-01-24T05:19:29.173Z,13.43
2018-01-24T05:21:57.736Z,15.98
2018-01-24T05:24:25.239Z,15.43
2018-01-24T05:26:52.727Z,15.85
2018-01-24T05:29:21.163Z,11.30
2018-01-24T05:31:49.770Z,11.68
2018-01-24T05:34:18.027Z,14.50
2018-01-24T05:36:46.265Z,14.05
2018-01-24T05:39:14.554Z,13.68
2018-01-24T05:41:42.444Z,12.85
2018-01-24T05:44:10.257Z,13.60
2018-01-24T05:46:38.518Z,12.75
2018-01-24T05:49:06.011Z,14.63
2018-01-24T05:51:34.299Z,9.30
2018-01-24T05:54:02.537Z,10.10
2018-01-24T05:56:30.456Z,12.10
2018-01-24T05:58:58.304Z,10.60
2018-01-24T06:01:26.567Z,10.27
2018-01-24T06:03:54.602Z,8.20
2018-01-24T06:06:22.542Z,9.30
2018-01-24T06:08:50.049Z,10.40
2018-01-24T06:11:18.287Z,9.25
2018-01-24T06:13:46.547Z,9.55
2018-01-24T06:16:15.183Z,8.05
2018-01-24T06:18:42.894Z,9.15
2018-01-24T06:21:10.375Z,9.38
2018-01-24T06:23:37.871Z,9.90
2018-01-24T06:26:06.187Z,8.30
2018-01-24T06:28:34.815Z,8.93
2018-01-24T06:31:02.747Z,10.80
2018-01-24T06:33:31.422Z,10.60
2018-01-24T06:35:59.988Z,11.32
2018-01-24T06:38:27.847Z,10.85
2018-01-24T06:40:55.755Z,9.18
2018-01-24T06:43:23.851Z,9.52
2018-01-24T06:45:51.801Z,6.37
2018-01-24T06:48:19.694Z,6.57
2018-01-24T06:50:48.351Z,6.90
2018-01-24T06:53:16.228Z,7.85
2018-01-24T06:55:43.696Z,7.57
2018-01-24T06:58:11.592Z,11.20
2018-01-24T07:00:39.475Z,7.25
2018-01-24T07:03:07.343Z,5.65
2018-01-24T07:05:35.222Z,6.60
2018-01-24T07:08:03.189Z,5.82
2018-01-24T07:10:31.071Z,5.95
2018-01-24T07:13:10.827Z,4.87
2018-01-24T07:15:38.338Z,5.30
2018-01-24T07:18:06.225Z,4.15
2018-01-24T07:20:34.483Z,6.45
2018-01-24T07:23:02.800Z,4.35
2018-01-24T07:25:50.826Z,4.05
2018-01-24T07:28:21.026Z,4.15
2018-01-24T07:30:48.901Z,4.53
2018-01-24T07:33:16.400Z,4.85
2018-01-24T07:35:44.689Z,3.90
2018-01-24T07:38:12.956Z,4.25
2018-01-24T07:40:40.880Z,5.72
2018-01-24T07:43:08.387Z,3.17
2018-01-24T07:45:35.894Z,5.30
2018-01-24T07:48:03.795Z,4.60
2018-01-24T07:50:31.891Z,3.97
2018-01-24T07:53:00.316Z,3.45
2018-01-24T07:55:27.876Z,4.72
2018-01-24T07:57:56.154Z,4.43
2018-01-24T08:00:23.690Z,3.33
2018-01-24T08:02:51.920Z,3.80
2018-01-24T08:05:19.750Z,5.05
2018-01-24T08:07:47.629Z,5.95
2018-01-24T08:10:15.858Z,6.47
2018-01-24T08:12:43.760Z,4.10
2018-01-24T08:15:11.998Z,8.88
2018-01-24T08:17:39.901Z,4.50
2018-01-24T08:20:07.460Z,6.20
2018-01-24T08:22:34.939Z,6.40
2018-01-24T08:25:03.167Z,3.80
2018-01-24T08:27:30.667Z,6.78
2018-01-24T08:29:58.546Z,6.53
2018-01-24T08:32:27.054Z,6.50
2018-01-24T08:34:56.495Z,4.60
2018-01-24T08:37:26.002Z,5.25
2018-01-24T08:39:54.648Z,6.25
2018-01-24T08:42:22.565Z,6.12
2018-01-24T08:44:50.226Z,6.43
2018-01-24T08:47:18.087Z,4.70
2018-01-24T08:49:45.955Z,6.10
2018-01-24T08:52:13.621Z,5.85
2018-01-24T08:54:41.615Z,5.65
2018-01-24T08:57:09.919Z,3.78
2018-01-24T08:59:38.231Z,3.80
2018-01-24T09:02:05.694Z,5.85
2018-01-24T09:04:33.225Z,5.32
2018-01-24T09:07:01.491Z,5.28
2018-01-24T09:09:29.826Z,4.60
2018-01-24T09:11:58.066Z,4.28
2018-01-24T09:14:25.546Z,4.53
2018-01-24T09:16:53.020Z,3.92
2018-01-24T09:19:21.067Z,4.03
2018-01-24T09:21:49.303Z,3.83
2018-01-24T09:24:17.171Z,3.45
2018-01-24T09:26:45.146Z,4.25
2018-01-24T09:29:13.706Z,3.20
2018-01-24T09:31:41.176Z,4.20
2018-01-24T09:34:09.486Z,5.00
2018-01-24T09:36:37.864Z,4.80
2018-01-24T09:39:06.101Z,4.62
2018-01-24T09:41:34.343Z,3.45
2018-01-24T09:44:02.283Z,2.42
2018-01-24T09:46:30.975Z,3.22
2018-01-24T09:48:58.456Z,4.37
2018-01-24T09:51:26.665Z,3.25
2018-01-24T09:53:54.973Z,3.58
2018-01-24T09:56:23.226Z,3.42
2018-01-24T09:58:51.083Z,2.55
2018-01-24T10:01:19.007Z,3.90
2018-01-24T10:03:46.919Z,4.40
2018-01-24T10:06:15.160Z,3.70
2018-01-24T10:08:43.128Z,3.25
2018-01-24T10:11:11.018Z,3.47
2018-01-24T10:13:38.896Z,2.62
2018-01-24T10:16:07.119Z,3.55
2018-01-24T10:18:35.355Z,2.60
2018-01-24T10:21:02.875Z,2.37
2018-01-24T10:23:30.358Z,2.15
2018-01-24T10:25:58.646Z,4.00
2018-01-24T10:28:26.767Z,3.47
2018-01-24T10:30:55.120Z,3.08
2018-01-24T10:33:23.294Z,3.33
2018-01-24T10:35:51.166Z,1.77
2018-01-24T10:38:19.041Z,2.67
2018-01-24T10:40:46.519Z,3.20
2018-01-24T10:43:14.604Z,2.60
2018-01-24T10:45:43.749Z,3.17
2018-01-24T10:48:11.271Z,2.70
2018-01-24T10:50:39.541Z,2.75
2018-01-24T10:53:07.587Z,2.67
2018-01-24T10:55:35.072Z,2.12
2018-01-24T10:58:02.599Z,1.77
2018-01-24T11:00:30.906Z,2.50
2018-01-24T11:02:58.335Z,2.20
2018-01-24T11:05:26.199Z,1.80
2018-01-24T11:07:55.077Z,2.67
2018-01-24T11:10:23.332Z,2.17
2018-01-24T11:12:51.979Z,1.42
2018-01-24T11:15:19.855Z,2.00
2018-01-24T11:17:48.413Z,1.50
2018-01-24T11:20:16.292Z,1.80
2018-01-24T11:22:44.146Z,2.22
2018-01-24T11:25:12.020Z,1.52
2018-01-24T11:27:40.631Z,2.42
2018-01-24T11:30:08.544Z,1.58
2018-01-24T11:32:36.059Z,1.85
2018-01-24T11:35:04.354Z,1.77
2018-01-24T11:37:32.621Z,2.15
2018-01-24T11:40:00.512Z,1.40
2018-01-24T11:42:28.778Z,1.70
2018-01-24T11:44:57.042Z,1.10
2018-01-24T11:47:24.602Z,1.30
2018-01-24T11:49:52.486Z,1.42
2018-01-24T11:52:20.436Z,1.65
2018-01-24T11:54:47.968Z,1.35
2018-01-24T11:57:15.867Z,1.98
2018-01-24T11:59:44.133Z,2.95
2018-01-24T12:02:12.265Z,1.75
2018-01-24T12:04:40.148Z,1.25
2018-01-24T12:07:08.094Z,3.95
2018-01-24T12:09:36.287Z,2.78
2018-01-24T12:12:04.535Z,0.90
2018-01-24T12:14:32.796Z,1.50
2018-01-24T12:17:00.659Z,1.10
2018-01-24T12:19:28.466Z,2.25
2018-01-24T12:21:56.364Z,0.70
2018-01-24T12:24:24.655Z,1.00
2018-01-24T12:26:52.573Z,0.80
2018-01-24T12:29:20.483Z,1.23
2018-01-24T12:31:48.363Z,0.80
2018-01-24T12:34:16.731Z,1.48
2018-01-24T12:36:45.007Z,2.22
2018-01-24T12:39:12.871Z,1.35
2018-01-24T12:41:41.131Z,0.68
2018-01-24T12:44:08.615Z,1.27
2018-01-24T12:46:36.093Z,1.00
2018-01-24T12:49:04.351Z,0.80
2018-01-24T12:51:32.252Z,1.20
2018-01-24T12:54:00.496Z,1.55
2018-01-24T12:56:28.540Z,0.80
2018-01-24T12:58:56.114Z,0.85
2018-01-24T13:01:23.644Z,0.80
2018-01-24T13:03:51.127Z,0.80
2018-01-24T13:06:19.375Z,1.10
2018-01-24T13:08:48.237Z,0.90
2018-01-24T13:11:16.156Z,1.65
2018-01-24T13:13:44.045Z,1.17
2018-01-24T13:16:12.047Z,0.80
2018-01-24T13:18:40.339Z,0.77
2018-01-24T13:21:08.593Z,1.50
2018-01-24T13:23:36.824Z,0.77
2018-01-24T13:26:04.780Z,0.90
2018-01-24T13:28:32.270Z,0.70
2018-01-24T13:31:00.539Z,2.35
2018-01-24T13:33:28.452Z,1.50
2018-01-24T13:35:56.378Z,0.80
2018-01-24T13:38:23.935Z,1.33
2018-01-24T13:40:51.869Z,1.52
2018-01-24T13:43:19.356Z,1.00
2018-01-24T13:45:47.626Z,1.60
2018-01-24T13:48:16.250Z,0.80
2018-01-24T13:50:44.771Z,1.10
2018-01-24T13:53:12.242Z,1.80
2018-01-24T13:55:40.650Z,2.97
2018-01-24T13:58:08.932Z,1.83
2018-01-24T14:00:38.011Z,1.37
2018-01-24T14:03:06.259Z,0.60
2018-01-24T14:05:34.159Z,1.55
2018-01-24T14:08:01.881Z,1.10
2018-01-24T14:10:29.792Z,0.98
2018-01-24T14:12:58.763Z,1.20
2018-01-24T14:15:26.637Z,0.70
2018-01-24T14:17:54.935Z,1.40
2018-01-24T14:20:23.224Z,1.60
2018-01-24T14:22:51.503Z,1.27
2018-01-24T14:25:19.812Z,1.10
2018-01-24T14:27:47.376Z,1.40
2018-01-24T14:30:15.625Z,1.30
2018-01-24T14:32:43.627Z,2.67
2018-01-24T14:35:11.648Z,1.00
2018-01-24T14:37:39.556Z,1.10
2018-01-24T14:40:07.115Z,1.40
2018-01-24T14:42:35.732Z,0.80
2018-01-24T14:45:04.708Z,1.37
2018-01-24T14:47:33.051Z,1.35
2018-01-24T14:50:01.023Z,1.40
2018-01-24T14:52:29.308Z,1.10
2018-01-24T14:54:57.639Z,2.85
2018-01-24T14:57:25.917Z,1.60
2018-01-24T14:59:55.068Z,2.20
2018-01-24T15:02:22.668Z,5.10
2018-01-24T15:04:50.588Z,2.45
2018-01-24T15:07:18.083Z,1.02
2018-01-24T15:09:45.567Z,3.20
2018-01-24T15:12:13.880Z,1.60
2018-01-24T15:14:41.759Z,1.42
2018-01-24T15:17:10.371Z,6.20
2018-01-24T15:19:37.851Z,2.40
2018-01-24T15:22:05.715Z,1.77
2018-01-24T15:24:33.652Z,1.10
2018-01-24T15:27:01.963Z,1.27
2018-01-24T15:29:30.477Z,1.75
2018-01-24T15:31:58.751Z,2.28
2018-01-24T15:34:26.726Z,1.80
2018-01-24T15:36:54.265Z,1.60
2018-01-24T15:39:22.267Z,1.60
2018-01-24T15:41:50.525Z,1.40
2018-01-24T15:44:18.779Z,4.70
2018-01-24T15:46:47.084Z,1.35
2018-01-24T15:49:15.725Z,2.95
2018-01-24T15:51:44.142Z,2.10
2018-01-24T15:54:11.649Z,1.55
2018-01-24T15:56:39.548Z,2.08
2018-01-24T15:59:07.454Z,3.67
2018-01-24T16:01:34.941Z,1.67
2018-01-24T16:04:02.419Z,1.20
2018-01-24T16:06:30.687Z,2.20
2018-01-24T16:08:58.695Z,1.40
2018-01-24T16:11:26.558Z,2.25
2018-01-24T16:13:55.180Z,2.08
2018-01-24T16:16:22.808Z,2.30
2018-01-24T16:18:50.700Z,1.87
2018-01-24T16:21:18.615Z,1.45
2018-01-24T16:23:46.526Z,1.60
2018-01-24T16:26:13.998Z,2.17
2018-01-24T16:28:42.342Z,1.95
2018-01-24T16:31:11.038Z,3.83
2018-01-24T16:33:39.639Z,1.70
2018-01-24T16:36:07.109Z,3.65
2018-01-24T16:38:34.603Z,2.10
2018-01-24T16:41:03.069Z,1.33
2018-01-24T16:43:30.519Z,1.90
2018-01-24T16:45:58.840Z,2.60
2018-01-24T16:48:27.116Z,3.37
2018-01-24T16:50:55.350Z,3.87
2018-01-24T16:53:23.629Z,2.85
2018-01-24T16:55:51.515Z,2.28
2018-01-24T16:58:19.378Z,3.75
2018-01-24T17:00:47.630Z,1.62
2018-01-24T17:03:15.878Z,2.50
2018-01-24T17:05:44.119Z,1.80
2018-01-24T17:08:12.379Z,1.83
2018-01-24T17:10:40.349Z,2.33
2018-01-24T17:13:08.233Z,1.70
2018-01-24T17:15:36.497Z,1.85
2018-01-24T17:18:04.432Z,7.40
2018-01-24T17:20:32.490Z,2.47
2018-01-24T17:23:00.823Z,3.15
2018-01-24T17:25:28.715Z,1.45
2018-01-24T17:27:57.200Z,0.98
2018-01-24T17:30:24.764Z,2.87
2018-01-24T17:32:53.031Z,2.40
2018-01-24T17:35:20.976Z,2.60
2018-01-24T17:37:48.875Z,3.25
2018-01-24T17:40:17.863Z,4.70
2018-01-24T17:42:45.819Z,3.92
2018-01-24T17:45:13.339Z,2.45
2018-01-24T17:47:40.856Z,3.22
2018-01-24T17:50:09.115Z,3.25
2018-01-24T17:52:37.255Z,2.80
2018-01-24T17:55:05.783Z,1.65
2018-01-24T17:57:33.297Z,3.37
2018-01-24T18:00:00.796Z,5.12
2018-01-24T18:02:29.735Z,2.58
2018-01-24T18:04:57.760Z,1.48
2018-01-24T18:07:25.955Z,2.45
2018-01-24T18:09:53.834Z,2.83
2018-01-24T18:12:22.068Z,2.65
2018-01-24T18:14:50.035Z,3.03
2018-01-24T18:17:17.940Z,1.80
2018-01-24T18:19:47.007Z,2.55
2018-01-24T18:22:15.370Z,2.50
2018-01-24T18:24:43.706Z,2.33
2018-01-24T18:27:12.603Z,3.53
2018-01-24T18:29:40.493Z,3.25
2018-01-24T18:32:08.374Z,2.95
2018-01-24T18:34:36.668Z,5.18
2018-01-24T18:37:04.935Z,2.50
2018-01-24T18:39:32.794Z,1.92
2018-01-24T18:42:00.337Z,3.55
2018-01-24T18:44:28.550Z,2.10
2018-01-24T18:46:56.423Z,3.70
2018-01-24T18:49:24.331Z,2.40
2018-01-24T18:51:52.961Z,3.55
2018-01-24T18:54:20.427Z,6.72
2018-01-24T18:56:48.296Z,4.28
2018-01-24T18:59:16.265Z,3.70
2018-01-24T19:01:43.814Z,3.72
2018-01-24T19:04:11.295Z,4.75
2018-01-24T19:06:39.192Z,4.03
2018-01-24T19:09:07.452Z,2.87
2018-01-24T19:11:34.959Z,4.00
2018-01-24T19:14:02.928Z,7.45
2018-01-24T19:16:30.861Z,5.82
2018-01-24T19:18:58.763Z,3.78
2018-01-24T19:21:26.411Z,3.37
2018-01-24T19:23:54.627Z,1.35
2018-01-24T19:26:22.499Z,2.12
2018-01-24T19:28:51.732Z,6.15
2018-01-24T19:31:19.223Z,4.00
2018-01-24T19:33:47.462Z,4.82
2018-01-24T19:36:16.160Z,2.80
2018-01-24T19:38:43.656Z,3.08
2018-01-24T19:41:11.152Z,3.30
2018-01-24T19:43:39.387Z,3.80
2018-01-24T19:46:06.849Z,5.37
2018-01-24T19:48:36.044Z,3.47
2018-01-24T19:51:03.932Z,3.08
2018-01-24T19:53:32.157Z,3.05
2018-01-24T19:56:01.839Z,3.53
2018-01-24T19:58:30.393Z,3.22
2018-01-24T20:00:58.616Z,1.90
2018-01-24T20:03:26.515Z,2.30
2018-01-24T20:05:54.844Z,1.77
2018-01-24T20:08:23.452Z,2.00
2018-01-24T20:10:51.505Z,1.70
2018-01-24T20:13:19.344Z,1.80
2018-01-24T20:15:47.578Z,2.92
2018-01-24T20:18:15.819Z,1.25
2018-01-24T20:20:43.534Z,1.83
2018-01-24T20:23:11.035Z,1.50
2018-01-24T20:25:38.906Z,1.75
2018-01-24T20:28:07.500Z,1.90
2018-01-24T20:30:34.991Z,1.58
2018-01-24T20:33:03.378Z,1.65
2018-01-24T20:35:31.384Z,1.77
2018-01-24T20:37:59.268Z,1.70
2018-01-24T20:40:27.219Z,1.40
2018-01-24T20:42:55.084Z,2.83
2018-01-24T20:45:22.980Z,1.40
2018-01-24T20:47:51.248Z,3.70
2018-01-24T20:50:18.788Z,2.20
2018-01-24T20:52:46.690Z,4.50
2018-01-24T20:55:14.573Z,1.90
2018-01-24T20:57:42.433Z,2.72
2018-01-24T21:00:10.304Z,1.60
2018-01-24T21:02:38.527Z,7.18
2018-01-24T21:05:06.004Z,3.12
2018-01-24T21:07:34.687Z,2.30
2018-01-24T21:10:02.153Z,1.75
2018-01-24T21:12:29.724Z,3.05
2018-01-24T21:14:58.707Z,1.70
2018-01-24T21:17:26.937Z,1.55
2018-01-24T21:19:54.483Z,2.40
2018-01-24T21:22:22.782Z,3.92
2018-01-24T21:24:51.035Z,6.50
2018-01-24T21:27:19.040Z,2.33
2018-01-24T21:29:59.458Z,2.55
2018-01-24T21:32:39.511Z,3.45
2018-01-24T21:35:17.131Z,4.93
2018-01-24T21:37:45.015Z,5.43
2018-01-24T21:40:13.252Z,7.45
2018-01-24T21:42:41.488Z,6.70
2018-01-24T21:45:09.018Z,6.57
2018-01-24T21:47:37.624Z,7.32
2018-01-24T21:50:05.925Z,5.30
2018-01-24T21:52:34.965Z,6.18
2018-01-24T21:55:02.451Z,5.55
2018-01-24T21:57:30.654Z,4.55
2018-01-24T21:59:58.899Z,3.90
2018-01-24T22:02:27.152Z,2.90
2018-01-24T22:04:55.095Z,3.35
2018-01-24T22:07:23.422Z,4.90
2018-01-24T22:09:51.667Z,3.47
2018-01-24T22:12:20.341Z,4.53
2018-01-24T22:14:48.603Z,2.92
2018-01-24T22:17:16.907Z,4.55
2018-01-24T22:19:44.399Z,4.57
2018-01-24T22:22:11.888Z,3.30
2018-01-24T22:24:40.141Z,2.67
2018-01-24T22:27:07.922Z,4.78
2018-01-24T22:29:36.180Z,1.90
2018-01-24T22:32:04.032Z,3.80
2018-01-24T22:34:31.529Z,5.62
2018-01-24T22:36:59.431Z,2.45
2018-01-24T22:39:26.944Z,3.20
2018-01-24T22:41:55.187Z,2.85
2018-01-24T22:44:22.714Z,2.55
2018-01-24T22:46:50.175Z,1.60
2018-01-24T22:49:18.752Z,2.05
2018-01-24T22:51:46.277Z,2.78
2018-01-24T22:54:13.974Z,2.67
2018-01-24T22:56:41.456Z,3.03
2018-01-24T22:59:08.970Z,1.85
2018-01-24T23:01:36.449Z,1.83
2018-01-24T23:04:04.007Z,5.43
2018-01-24T23:06:31.976Z,3.22
2018-01-24T23:09:00.164Z,4.60
2018-01-24T23:11:28.115Z,4.25
2018-01-24T23:13:55.947Z,2.08
2018-01-24T23:16:24.230Z,3.92
2018-01-24T23:18:52.518Z,2.80
2018-01-24T23:21:20.379Z,3.17
2018-01-24T23:23:48.267Z,7.15
2018-01-24T23:26:15.776Z,1.92
2018-01-24T23:28:44.019Z,4.85
2018-01-24T23:31:12.279Z,5.00
2018-01-24T23:33:40.548Z,3.15
2018-01-24T23:36:08.788Z,2.87
2018-01-24T23:38:37.018Z,4.68
2018-01-24T23:41:04.512Z,2.30
2018-01-24T23:43:32.369Z,3.70
2018-01-24T23:46:00.642Z,4.68
2018-01-24T23:48:29.228Z,2.30
2018-01-24T23:50:56.715Z,3.47
2018-01-24T23:53:24.575Z,5.30
2018-01-24T23:55:52.470Z,5.07
2018-01-24T23:58:20.339Z,10.25
